Time;durP1;ratioP1;P1;durP2;ratioP2;P2;SDS_P1;SDS_P2;PMS_P1;PMS_P2;Temp;Humidity;BMP_temperature;BMP_pressure;BME280_temperature;BME280_humidity;BME280_pressure;Samples;Min_cycle;Max_cycle;Signal;HPM_P1;HPM_P2
2023/01/14 00:00:15;;;;;;;24.73;7.53;;;;;;;;;;4940254;28;20125;-73
2023/01/14 00:02:40;;;;;;;23.00;7.70;;;;;;;;;;4924691;28;20066;-74
2023/01/14 00:05:06;;;;;;;24.80;7.67;;;;;;;;;;4925070;28;20089;-73
2023/01/14 00:07:32;;;;;;;23.93;7.53;;;;;;;;;;4925219;28;20031;-73
2023/01/14 00:09:58;;;;;;;18.07;7.13;;;;;;;;;;4924562;28;20042;-73
2023/01/14 00:12:24;;;;;;;21.77;7.60;;;;;;;;;;4924748;28;20031;-73
2023/01/14 00:14:49;;;;;;;24.20;7.60;;;;;;;;;;4924617;28;20058;-73
2023/01/14 00:17:15;;;;;;;25.93;8.00;;;;;;;;;;4924525;28;20041;-73
2023/01/14 00:19:40;;;;;;;20.67;7.67;;;;;;;;;;4924308;28;20057;-73
2023/01/14 00:22:06;;;;;;;19.97;7.63;;;;;;;;;;4940935;28;20358;-73
2023/01/14 00:24:32;;;;;;;19.40;7.63;;;;;;;;;;4924924;28;20047;-72
2023/01/14 00:26:58;;;;;;;18.93;6.47;;;;;;;;;;4924554;28;20392;-73
2023/01/14 00:29:26;;;;;;;13.67;6.83;;;;;;;;;;4924516;28;20516;-72
2023/01/14 00:31:57;;;;;;;18.97;6.53;;;;;;;;;;4940730;28;20066;-72
2023/01/14 00:34:24;;;;;;;18.40;7.07;;;;;;;;;;4924750;28;20561;-73
2023/01/14 00:36:50;;;;;;;19.63;7.20;;;;;;;;;;4956487;28;20105;-73
2023/01/14 00:39:20;;;;;;;17.47;7.20;;;;;;;;;;4926150;28;20088;-72
2023/01/14 00:41:45;;;;;;;22.07;7.47;;;;;;;;;;4941265;28;20035;-72
2023/01/14 00:44:11;;;;;;;15.40;6.80;;;;;;;;;;4925594;28;20043;-74
2023/01/14 00:46:38;;;;;;;19.93;6.93;;;;;;;;;;4941899;28;20053;-72
2023/01/14 00:49:04;;;;;;;21.30;7.30;;;;;;;;;;4926159;28;20093;-72
2023/01/14 00:51:31;;;;;;;20.33;7.50;;;;;;;;;;4925228;28;20163;-72
2023/01/14 00:53:57;;;;;;;21.07;8.20;;;;;;;;;;4940848;28;20493;-72
2023/01/14 00:56:23;;;;;;;23.67;7.30;;;;;;;;;;4956523;28;20034;-72
2023/01/14 00:58:50;;;;;;;17.07;6.87;;;;;;;;;;4924800;28;20034;-72
2023/01/14 01:01:18;;;;;;;21.13;7.67;;;;;;;;;;4941405;28;20076;-71
2023/01/14 01:03:47;;;;;;;17.90;6.53;;;;;;;;;;4924884;28;20045;-72
2023/01/14 01:06:15;;;;;;;29.58;7.25;;;;;;;;;;4924629;28;20034;-71
2023/01/14 01:08:41;;;;;;;17.37;6.50;;;;;;;;;;4924316;28;20043;-71
2023/01/14 01:11:07;;;;;;;18.10;6.50;;;;;;;;;;4940594;28;20492;-72
2023/01/14 01:13:33;;;;;;;15.70;6.23;;;;;;;;;;4924127;28;20536;-71
2023/01/14 01:16:06;;;;;;;18.30;6.90;;;;;;;;;;4924120;28;20042;-72
2023/01/14 01:18:32;;;;;;;22.23;6.63;;;;;;;;;;4924233;28;20141;-72
2023/01/14 01:21:02;;;;;;;14.90;6.60;;;;;;;;;;4923963;28;20557;-72
2023/01/14 01:23:28;;;;;;;21.02;7.70;;;;;;;;;;4940027;28;20061;-72
2023/01/14 01:25:58;;;;;;;16.20;6.93;;;;;;;;;;4923777;28;20089;-72
2023/01/14 01:28:24;;;;;;;15.30;7.38;;;;;;;;;;4924081;28;20108;-72
2023/01/14 01:30:50;;;;;;;14.00;6.90;;;;;;;;;;4939753;28;20043;-72
2023/01/14 01:33:16;;;;;;;17.93;6.63;;;;;;;;;;4923814;28;20035;-72
2023/01/14 01:35:42;;;;;;;16.20;6.73;;;;;;;;;;4924035;28;20030;-72
2023/01/14 01:38:08;;;;;;;20.63;7.17;;;;;;;;;;4933419;29;20038;-71
2023/01/14 01:40:34;;;;;;;18.37;6.90;;;;;;;;;;4922547;28;20051;-71
2023/01/14 01:43:00;;;;;;;19.40;7.00;;;;;;;;;;4920888;29;20126;-72
2023/01/14 01:45:26;;;;;;;15.97;6.57;;;;;;;;;;4922432;28;20034;-72
2023/01/14 01:47:54;;;;;;;14.53;6.50;;;;;;;;;;4921866;29;20389;-72
2023/01/14 01:50:20;;;;;;;15.53;7.33;;;;;;;;;;4924442;28;20258;-72
2023/01/14 01:52:46;;;;;;;24.73;7.33;;;;;;;;;;4942792;28;20496;-73
2023/01/14 01:55:12;;;;;;;10.97;6.27;;;;;;;;;;4943053;28;20045;-73
2023/01/14 01:57:39;;;;;;;18.40;7.27;;;;;;;;;;4942980;28;20039;-73
2023/01/14 02:00:07;;;;;;;12.23;6.93;;;;;;;;;;4923594;29;20057;-73
2023/01/14 02:02:38;;;;;;;15.37;8.27;;;;;;;;;;4958932;28;20038;-73
2023/01/14 02:05:04;;;;;;;16.07;7.87;;;;;;;;;;4958830;28;20101;-73
2023/01/14 02:07:33;;;;;;;16.33;7.00;;;;;;;;;;4926192;28;20031;-73
2023/01/14 02:10:01;;;;;;;16.73;8.50;;;;;;;;;;4942737;28;20499;-72
2023/01/14 02:12:29;;;;;;;21.13;7.70;;;;;;;;;;4943061;28;20066;-72
2023/01/14 02:15:04;;;;;;;19.70;7.77;;;;;;;;;;4923336;29;20067;-72
2023/01/14 02:17:33;;;;;;;15.87;7.60;;;;;;;;;;4941060;28;20162;-72
2023/01/14 02:20:10;;;;;;;18.20;7.27;;;;;;;;;;4923216;29;20051;-72
2023/01/14 02:22:35;;;;;;;18.90;8.60;;;;;;;;;;4941549;28;20093;-72
2023/01/14 02:25:23;;;;;;;20.10;7.97;;;;;;;;;;4923262;29;20134;-72
2023/01/14 02:27:54;;;;;;;16.80;6.83;;;;;;;;;;4939157;29;20081;-72
2023/01/14 02:30:36;;;;;;;18.17;7.53;;;;;;;;;;4939455;28;20067;-72
2023/01/14 02:33:11;;;;;;;14.27;6.87;;;;;;;;;;4938921;29;20053;-73
2023/01/14 02:35:42;;;;;;;17.27;7.63;;;;;;;;;;4958187;28;20140;-73
2023/01/14 02:38:17;;;;;;;22.03;7.60;;;;;;;;;;4922965;29;20075;-73
2023/01/14 02:40:49;;;;;;;16.30;9.17;;;;;;;;;;4947037;29;20047;-72
2023/01/14 02:46:19;;;;;;;15.83;7.30;;;;;;;;;;4942115;28;20670;-72
2023/01/14 02:48:48;;;;;;;14.43;7.40;;;;;;;;;;4941945;28;20130;-71
2023/01/14 02:51:13;;;;;;;12.07;6.47;;;;;;;;;;4932619;28;20149;-72
2023/01/14 02:53:39;;;;;;;17.47;7.87;;;;;;;;;;4960835;28;20246;-72
2023/01/14 02:56:05;;;;;;;17.53;7.87;;;;;;;;;;4941589;28;20038;-72
2023/01/14 02:58:46;;;;;;;17.23;6.83;;;;;;;;;;4958160;28;20057;-72
2023/01/14 03:01:32;;;;;;;19.47;7.70;;;;;;;;;;4960645;28;20050;-73
2023/01/14 03:04:14;;;;;;;19.03;6.77;;;;;;;;;;4960891;28;20376;-74
2023/01/14 03:06:47;;;;;;;16.07;7.93;;;;;;;;;;4960437;28;20468;-73
2023/01/14 03:09:24;;;;;;;14.13;7.37;;;;;;;;;;4945221;28;20046;-73
2023/01/14 03:12:03;;;;;;;17.57;8.50;;;;;;;;;;4944747;28;20086;-73
2023/01/14 03:14:56;;;;;;;17.60;8.17;;;;;;;;;;4945380;28;20038;-74
2023/01/14 03:17:24;;;;;;;19.93;8.47;;;;;;;;;;4940659;28;20045;-73
2023/01/14 03:19:57;;;;;;;19.40;8.73;;;;;;;;;;4958816;28;20046;-73
2023/01/14 03:22:23;;;;;;;18.67;8.67;;;;;;;;;;4940642;28;20066;-73
2023/01/14 03:24:53;;;;;;;16.77;9.23;;;;;;;;;;4974963;28;20380;-72
2023/01/14 03:27:23;;;;;;;20.10;9.23;;;;;;;;;;4955863;28;20030;-72
2023/01/14 03:29:52;;;;;;;18.67;8.63;;;;;;;;;;4959241;28;20038;-72
2023/01/14 03:32:20;;;;;;;22.47;9.40;;;;;;;;;;4956269;28;20125;-72
2023/01/14 03:35:06;;;;;;;28.20;8.93;;;;;;;;;;4960394;28;20038;-72
2023/01/14 03:37:32;;;;;;;18.63;9.50;;;;;;;;;;4974989;28;20126;-72
2023/01/14 03:39:59;;;;;;;19.67;8.30;;;;;;;;;;4960355;28;20138;-72
2023/01/14 03:42:28;;;;;;;20.87;9.23;;;;;;;;;;4971670;28;20136;-70
2023/01/14 03:44:59;;;;;;;25.80;8.40;;;;;;;;;;4940485;28;20034;-70
2023/01/14 03:47:33;;;;;;;21.97;7.87;;;;;;;;;;4939430;28;20053;-71
2023/01/14 03:50:00;;;;;;;17.00;8.80;;;;;;;;;;4940581;28;20026;-72
2023/01/14 03:52:34;;;;;;;24.97;8.00;;;;;;;;;;4942683;28;20369;-72
2023/01/14 03:55:03;;;;;;;19.83;8.67;;;;;;;;;;4940539;28;20098;-70
2023/01/14 03:57:32;;;;;;;16.77;7.20;;;;;;;;;;4958486;28;20058;-70
2023/01/14 03:59:59;;;;;;;16.30;7.33;;;;;;;;;;4940230;28;20074;-71
2023/01/14 04:02:26;;;;;;;18.27;8.17;;;;;;;;;;4938309;28;20167;-70
2023/01/14 04:04:52;;;;;;;19.43;8.03;;;;;;;;;;4937330;29;20050;-71
2023/01/14 04:07:19;;;;;;;17.80;7.80;;;;;;;;;;4940504;28;20035;-71
2023/01/14 04:09:45;;;;;;;15.37;8.03;;;;;;;;;;4921665;29;20093;-71
2023/01/14 04:12:10;;;;;;;17.73;7.83;;;;;;;;;;4920166;29;20389;-70
2023/01/14 04:17:21;;;;;;;22.07;7.90;;;;;;;;;;4923999;28;20098;-71
2023/01/14 04:19:49;;;;;;;17.10;7.83;;;;;;;;;;4937447;29;20062;-70
2023/01/14 04:22:15;;;;;;;16.63;8.07;;;;;;;;;;4936234;29;20138;-71
2023/01/14 04:24:40;;;;;;;18.07;7.20;;;;;;;;;;4939029;28;20145;-70
2023/01/14 04:27:06;;;;;;;18.20;7.47;;;;;;;;;;4940077;28;20039;-71
2023/01/14 04:29:32;;;;;;;13.33;7.30;;;;;;;;;;4938886;28;20433;-71
2023/01/14 04:31:58;;;;;;;18.27;7.43;;;;;;;;;;4939423;28;20054;-71
2023/01/14 04:34:24;;;;;;;14.37;5.63;;;;;;;;;;4919701;28;20050;-71
2023/01/14 04:36:50;;;;;;;14.97;7.17;;;;;;;;;;4938149;28;20031;-71
2023/01/14 04:39:15;;;;;;;15.07;7.13;;;;;;;;;;4918498;29;20050;-70
2023/01/14 04:44:27;;;;;;;22.13;6.73;;;;;;;;;;4953750;28;20038;-71
2023/01/14 04:46:52;;;;;;;13.13;6.87;;;;;;;;;;4918720;29;20038;-72
2023/01/14 04:49:18;;;;;;;19.00;9.10;;;;;;;;;;4936327;28;20039;-71
2023/01/14 04:51:43;;;;;;;16.67;6.73;;;;;;;;;;4920772;29;20039;-71
2023/01/14 04:54:09;;;;;;;18.60;7.40;;;;;;;;;;4936480;29;20034;-71
2023/01/14 04:56:34;;;;;;;18.73;7.57;;;;;;;;;;4930974;28;20061;-71
2023/01/14 04:59:02;;;;;;;16.33;7.20;;;;;;;;;;4920794;29;20496;-71
2023/01/14 05:01:30;;;;;;;20.47;8.00;;;;;;;;;;4970762;28;20039;-71
2023/01/14 05:03:58;;;;;;;15.23;7.30;;;;;;;;;;4936592;29;20035;-72
2023/01/14 05:06:28;;;;;;;17.43;7.47;;;;;;;;;;4939883;28;20484;-71
2023/01/14 05:08:54;;;;;;;16.07;6.80;;;;;;;;;;4920713;29;20039;-71
2023/01/14 05:11:19;;;;;;;17.10;7.23;;;;;;;;;;4924061;28;20142;-71
2023/01/14 05:13:45;;;;;;;15.23;6.77;;;;;;;;;;4920492;29;20493;-71
2023/01/14 05:16:12;;;;;;;21.97;7.37;;;;;;;;;;4936564;29;20419;-71
2023/01/14 05:18:37;;;;;;;14.63;6.80;;;;;;;;;;4938906;28;20094;-73
2023/01/14 05:21:04;;;;;;;14.90;6.53;;;;;;;;;;4923773;28;20050;-71
2023/01/14 05:23:30;;;;;;;22.53;6.60;;;;;;;;;;4939798;28;20065;-73
2023/01/14 05:25:55;;;;;;;16.93;6.70;;;;;;;;;;4924390;29;20470;-73
2023/01/14 05:28:21;;;;;;;17.87;8.30;;;;;;;;;;4956746;28;20031;-74
2023/01/14 05:30:47;;;;;;;20.30;7.90;;;;;;;;;;4959315;28;20046;-73
2023/01/14 05:33:14;;;;;;;14.10;6.57;;;;;;;;;;4926954;28;20062;-73
2023/01/14 05:35:40;;;;;;;15.70;7.17;;;;;;;;;;4942807;28;20046;-73
2023/01/14 05:38:06;;;;;;;12.93;7.03;;;;;;;;;;4942774;28;20030;-74
2023/01/14 05:40:32;;;;;;;18.80;6.80;;;;;;;;;;4926867;28;20053;-74
2023/01/14 05:45:51;;;;;;;16.47;7.67;;;;;;;;;;4943281;28;20042;-72
2023/01/14 05:48:24;;;;;;;20.67;7.23;;;;;;;;;;4958610;28;20070;-73
2023/01/14 05:50:51;;;;;;;19.10;8.27;;;;;;;;;;4942408;28;20033;-73
2023/01/14 05:53:16;;;;;;;17.40;7.70;;;;;;;;;;4957631;28;20142;-73
2023/01/14 05:55:44;;;;;;;14.77;6.83;;;;;;;;;;4942610;28;20125;-71
2023/01/14 05:58:09;;;;;;;22.20;7.37;;;;;;;;;;4942451;28;20146;-72
2023/01/14 06:06:22;;;;;;;22.40;8.33;;;;;;;;;;4966049;28;20038;-72
2023/01/14 06:08:55;;;;;;;16.07;8.00;;;;;;;;;;4978149;28;20133;-72
2023/01/14 06:11:21;;;;;;;18.60;7.30;;;;;;;;;;4959898;28;20057;-68
2023/01/14 06:13:47;;;;;;;16.93;7.60;;;;;;;;;;4948119;28;20842;-67
2023/01/14 06:16:13;;;;;;;24.20;7.37;;;;;;;;;;4961750;28;20038;-70
2023/01/14 06:18:42;;;;;;;17.13;7.63;;;;;;;;;;4945909;28;20045;-68
2023/01/14 06:21:12;;;;;;;19.13;7.93;;;;;;;;;;4961169;28;20608;-71
2023/01/14 06:23:38;;;;;;;23.95;8.20;;;;;;;;;;4945312;28;20034;-69
2023/01/14 06:26:07;;;;;;;19.83;8.23;;;;;;;;;;4961359;28;20384;-70
2023/01/14 06:28:32;;;;;;;24.27;7.30;;;;;;;;;;4977282;28;20047;-70
2023/01/14 06:30:59;;;;;;;19.10;8.77;;;;;;;;;;4944837;28;20085;-72
2023/01/14 06:33:24;;;;;;;15.67;7.87;;;;;;;;;;4961486;28;20409;-71
2023/01/14 06:35:50;;;;;;;17.23;7.27;;;;;;;;;;4960120;28;20034;-71
2023/01/14 06:38:17;;;;;;;19.30;8.47;;;;;;;;;;4951546;28;20560;-71
2023/01/14 06:40:44;;;;;;;17.07;7.73;;;;;;;;;;4922403;29;20062;-69
2023/01/14 06:43:10;;;;;;;18.20;7.83;;;;;;;;;;4952869;29;20102;-69
2023/01/14 06:45:36;;;;;;;23.37;7.73;;;;;;;;;;4913707;28;20486;-71
2023/01/14 06:48:02;;;;;;;23.03;8.50;;;;;;;;;;4917983;29;20105;-70
2023/01/14 06:50:28;;;;;;;28.73;8.73;;;;;;;;;;4920100;28;20043;-70
2023/01/14 06:52:53;;;;;;;24.87;8.53;;;;;;;;;;4918140;29;20420;-71
2023/01/14 06:55:19;;;;;;;22.87;8.87;;;;;;;;;;4918851;28;20031;-69
2023/01/14 06:57:45;;;;;;;17.07;7.53;;;;;;;;;;4935394;29;20046;-70
2023/01/14 07:00:11;;;;;;;19.23;6.63;;;;;;;;;;4940695;28;20055;-71
2023/01/14 07:02:37;;;;;;;17.93;7.40;;;;;;;;;;4925430;28;20493;-71
2023/01/14 07:05:03;;;;;;;16.83;6.70;;;;;;;;;;4957596;28;20035;-71
2023/01/14 07:07:29;;;;;;;18.73;7.37;;;;;;;;;;4940266;28;20101;-70
2023/01/14 07:09:55;;;;;;;17.53;7.27;;;;;;;;;;4922879;29;20035;-70
2023/01/14 07:12:22;;;;;;;14.03;5.77;;;;;;;;;;4938850;28;20121;-71
2023/01/14 07:14:47;;;;;;;16.90;7.13;;;;;;;;;;4957484;28;20034;-71
2023/01/14 07:17:13;;;;;;;16.70;7.30;;;;;;;;;;4938323;29;20035;-70
2023/01/14 07:19:38;;;;;;;19.67;7.53;;;;;;;;;;4974029;28;20053;-71
2023/01/14 07:22:04;;;;;;;18.37;7.97;;;;;;;;;;4922395;29;20035;-71
2023/01/14 07:24:33;;;;;;;18.97;6.40;;;;;;;;;;4957808;28;20544;-70
2023/01/14 07:26:58;;;;;;;22.50;5.77;;;;;;;;;;4922529;29;20066;-71
2023/01/14 07:29:24;;;;;;;22.63;6.90;;;;;;;;;;4923259;28;20039;-71
2023/01/14 07:31:52;;;;;;;23.83;8.63;;;;;;;;;;4921983;29;20478;-70
2023/01/14 07:34:18;;;;;;;19.57;7.43;;;;;;;;;;4922235;28;20476;-71
2023/01/14 07:36:45;;;;;;;26.80;7.10;;;;;;;;;;4922330;29;20047;-70
2023/01/14 07:39:11;;;;;;;19.00;7.83;;;;;;;;;;4949648;29;20098;-71
2023/01/14 07:41:37;;;;;;;28.67;8.60;;;;;;;;;;4932400;28;20042;-70
2023/01/14 07:44:04;;;;;;;28.97;8.30;;;;;;;;;;4921980;29;20039;-70
2023/01/14 07:46:29;;;;;;;20.07;7.53;;;;;;;;;;4939790;28;20523;-70
2023/01/14 07:48:55;;;;;;;21.97;6.77;;;;;;;;;;4921892;29;20159;-71
2023/01/14 07:51:23;;;;;;;16.77;7.57;;;;;;;;;;4922342;28;20098;-71
2023/01/14 07:53:48;;;;;;;18.70;7.47;;;;;;;;;;4937906;29;20043;-70
2023/01/14 07:56:14;;;;;;;20.70;8.00;;;;;;;;;;4921801;29;20101;-70
2023/01/14 07:58:40;;;;;;;19.13;7.40;;;;;;;;;;4956485;28;20274;-70
2023/01/14 08:01:06;;;;;;;19.70;6.87;;;;;;;;;;4940838;28;20049;-72
2023/01/14 08:03:32;;;;;;;24.57;7.50;;;;;;;;;;4939663;28;20035;-70
2023/01/14 08:06:01;;;;;;;22.23;8.20;;;;;;;;;;4940800;28;20042;-70
2023/01/14 08:08:27;;;;;;;19.50;6.90;;;;;;;;;;4938998;28;20031;-70
2023/01/14 08:10:53;;;;;;;24.23;7.37;;;;;;;;;;4921567;29;20386;-70
2023/01/14 08:13:19;;;;;;;24.40;7.03;;;;;;;;;;4937507;28;20492;-71
2023/01/14 08:15:44;;;;;;;23.63;8.37;;;;;;;;;;4937431;29;20039;-70
2023/01/14 08:18:10;;;;;;;19.77;6.83;;;;;;;;;;4937392;29;20070;-71
2023/01/14 08:20:36;;;;;;;27.87;8.13;;;;;;;;;;4931965;28;20042;-71
2023/01/14 08:23:01;;;;;;;24.67;7.33;;;;;;;;;;4921770;29;20031;-71
2023/01/14 08:25:27;;;;;;;29.33;8.40;;;;;;;;;;4922664;28;20045;-70
2023/01/14 08:27:53;;;;;;;16.77;7.10;;;;;;;;;;4921371;29;20472;-71
2023/01/14 08:30:19;;;;;;;16.43;7.50;;;;;;;;;;4921569;28;20039;-71
2023/01/14 08:32:45;;;;;;;17.60;8.00;;;;;;;;;;4921489;29;20059;-70
2023/01/14 08:35:10;;;;;;;22.97;7.57;;;;;;;;;;4921409;29;20441;-70
2023/01/14 08:37:36;;;;;;;16.43;7.10;;;;;;;;;;4939332;28;20054;-70
2023/01/14 08:40:02;;;;;;;19.37;7.13;;;;;;;;;;4940360;28;20046;-71
2023/01/14 08:42:29;;;;;;;30.37;7.60;;;;;;;;;;4955017;28;20035;-71
2023/01/14 08:44:55;;;;;;;17.67;7.93;;;;;;;;;;4940141;28;20050;-70
2023/01/14 08:47:20;;;;;;;19.00;7.30;;;;;;;;;;4921657;28;20067;-70
2023/01/14 08:49:46;;;;;;;24.03;7.77;;;;;;;;;;4940154;28;20477;-71
2023/01/14 08:52:11;;;;;;;24.50;8.27;;;;;;;;;;4921260;29;20190;-71
2023/01/14 08:54:37;;;;;;;20.27;7.50;;;;;;;;;;4923750;28;20054;-70
2023/01/14 08:57:03;;;;;;;22.73;7.43;;;;;;;;;;4937123;28;20110;-70
2023/01/14 08:59:28;;;;;;;23.73;6.97;;;;;;;;;;4941988;28;20473;-71
2023/01/14 09:01:54;;;;;;;16.10;7.17;;;;;;;;;;4924877;29;20047;-70
2023/01/14 09:04:20;;;;;;;25.10;7.47;;;;;;;;;;4925095;28;20102;-70
2023/01/14 09:17:45;;;;;;;22.93;7.27;;;;;;;;;;4943639;28;20049;-70
2023/01/14 09:20:12;;;;;;;19.13;7.13;;;;;;;;;;4924402;29;20421;-70
2023/01/14 09:22:37;;;;;;;16.33;7.40;;;;;;;;;;4943198;28;20027;-70
2023/01/14 09:25:03;;;;;;;21.30;7.07;;;;;;;;;;4924874;29;20050;-70
2023/01/14 09:27:31;;;;;;;20.97;6.77;;;;;;;;;;4941991;28;20460;-71
2023/01/14 09:29:57;;;;;;;25.53;8.17;;;;;;;;;;4959704;28;20254;-71
2023/01/14 09:32:22;;;;;;;19.67;6.93;;;;;;;;;;4924843;28;20554;-71
2023/01/14 09:34:49;;;;;;;20.67;6.77;;;;;;;;;;4924628;29;20077;-70
2023/01/14 09:37:21;;;;;;;20.70;7.90;;;;;;;;;;4924326;29;20087;-70
2023/01/14 09:39:47;;;;;;;20.97;7.77;;;;;;;;;;4948710;29;20449;-70
2023/01/14 09:42:16;;;;;;;21.17;7.43;;;;;;;;;;4939119;29;20039;-70
2023/01/14 09:44:43;;;;;;;18.00;7.83;;;;;;;;;;4955996;29;20054;-70
2023/01/14 09:47:12;;;;;;;22.67;7.33;;;;;;;;;;4939882;29;20075;-69
2023/01/14 09:49:42;;;;;;;26.77;7.60;;;;;;;;;;4918534;28;20039;-70
2023/01/14 09:52:26;;;;;;;20.00;7.47;;;;;;;;;;4943331;28;20039;-70
2023/01/14 09:55:05;;;;;;;20.73;7.03;;;;;;;;;;4943149;28;20137;-70
2023/01/14 09:57:43;;;;;;;20.87;7.57;;;;;;;;;;4943080;28;20393;-71
2023/01/14 10:00:15;;;;;;;23.67;7.93;;;;;;;;;;4923928;29;20113;-69
2023/01/14 10:02:40;;;;;;;21.07;7.63;;;;;;;;;;4926978;28;20050;-70
2023/01/14 10:05:10;;;;;;;23.60;8.30;;;;;;;;;;4924223;29;20462;-71
2023/01/14 10:07:36;;;;;;;26.43;7.13;;;;;;;;;;4926399;28;20042;-71
2023/01/14 10:10:03;;;;;;;22.23;7.20;;;;;;;;;;4942668;28;20389;-70
2023/01/14 10:12:37;;;;;;;17.63;7.40;;;;;;;;;;4958937;28;20035;-70
2023/01/14 10:15:19;;;;;;;23.67;7.93;;;;;;;;;;4923701;29;20151;-71
2023/01/14 10:17:50;;;;;;;21.90;7.77;;;;;;;;;;4923475;29;20035;-70
2023/01/14 10:20:18;;;;;;;19.40;7.00;;;;;;;;;;4939871;29;20057;-70
2023/01/14 10:22:46;;;;;;;28.83;7.73;;;;;;;;;;4939502;29;20418;-71
2023/01/14 10:25:16;;;;;;;23.10;7.60;;;;;;;;;;4955285;29;20537;-70
2023/01/14 10:27:44;;;;;;;17.52;8.02;;;;;;;;;;4934603;28;20123;-71
2023/01/14 10:30:16;;;;;;;14.80;6.77;;;;;;;;;;4923727;29;20133;-71
2023/01/14 10:32:41;;;;;;;17.77;7.47;;;;;;;;;;4926685;28;20063;-69
2023/01/14 10:35:10;;;;;;;29.63;8.00;;;;;;;;;;4942559;28;20057;-71
2023/01/14 10:37:36;;;;;;;28.90;7.97;;;;;;;;;;4942677;28;20080;-72
2023/01/14 10:40:02;;;;;;;21.23;7.63;;;;;;;;;;4923132;29;20083;-71
2023/01/14 10:42:29;;;;;;;26.40;8.47;;;;;;;;;;4924937;28;20063;-71
2023/01/14 10:44:55;;;;;;;19.33;8.20;;;;;;;;;;4923083;29;20062;-70
2023/01/14 10:47:22;;;;;;;20.27;7.53;;;;;;;;;;4926288;28;20491;-71
2023/01/14 10:49:47;;;;;;;20.00;8.30;;;;;;;;;;4923349;29;20047;-70
2023/01/14 10:52:22;;;;;;;28.70;9.37;;;;;;;;;;4923108;29;20042;-70
2023/01/14 10:54:54;;;;;;;24.07;8.40;;;;;;;;;;4938649;29;20449;-70
2023/01/14 10:57:19;;;;;;;23.63;7.87;;;;;;;;;;4931122;28;20070;-70
2023/01/14 10:59:52;;;;;;;23.77;8.50;;;;;;;;;;4922946;29;20085;-70
2023/01/14 11:02:38;;;;;;;26.47;8.23;;;;;;;;;;4922848;28;20070;-70
2023/01/14 11:05:22;;;;;;;18.30;8.10;;;;;;;;;;4922132;29;20452;-71
2023/01/14 11:07:50;;;;;;;26.37;9.27;;;;;;;;;;4947407;29;20102;-70
2023/01/14 11:10:16;;;;;;;20.77;8.40;;;;;;;;;;4938554;29;20027;-71
2023/01/14 11:12:41;;;;;;;21.43;7.87;;;;;;;;;;4933831;28;20039;-70
2023/01/14 11:15:27;;;;;;;21.70;7.87;;;;;;;;;;4922868;29;20481;-71
2023/01/14 11:17:53;;;;;;;18.47;7.20;;;;;;;;;;4925582;28;20387;-71
2023/01/14 11:20:23;;;;;;;22.63;9.17;;;;;;;;;;4938021;28;20051;-70
2023/01/14 11:22:59;;;;;;;20.87;9.00;;;;;;;;;;4941621;28;20038;-71
2023/01/14 11:25:25;;;;;;;18.63;8.57;;;;;;;;;;4941342;28;20035;-71
2023/01/14 11:27:51;;;;;;;20.33;8.43;;;;;;;;;;4941469;28;20047;-71
2023/01/14 11:30:21;;;;;;;29.60;8.40;;;;;;;;;;4922534;29;20763;-70
2023/01/14 11:32:49;;;;;;;25.50;8.93;;;;;;;;;;4922197;29;20090;-70
2023/01/14 11:35:20;;;;;;;16.43;8.00;;;;;;;;;;4938008;29;20117;-70
2023/01/14 11:37:49;;;;;;;20.23;8.20;;;;;;;;;;4906987;29;20054;-70
2023/01/14 11:40:23;;;;;;;22.07;8.77;;;;;;;;;;4966233;28;20047;-69
2023/01/14 11:42:50;;;;;;;16.47;8.10;;;;;;;;;;4926411;28;20397;-70
2023/01/14 11:45:18;;;;;;;19.40;7.40;;;;;;;;;;4922032;29;20435;-70
2023/01/14 11:47:54;;;;;;;15.40;7.73;;;;;;;;;;4922329;29;20074;-70
2023/01/14 12:01:12;;;;;;;13.90;6.40;;;;;;;;;;4972662;28;20089;-70
2023/01/14 12:03:47;;;;;;;22.80;9.20;;;;;;;;;;4925518;28;20150;-70
2023/01/14 12:06:15;;;;;;;20.37;8.30;;;;;;;;;;4938163;29;20462;-70
2023/01/14 12:08:43;;;;;;;19.43;7.27;;;;;;;;;;4940853;28;20062;-71
2023/01/14 12:11:15;;;;;;;18.60;8.20;;;;;;;;;;4940703;28;20068;-70
2023/01/14 12:16:48;;;;;;;17.50;8.27;;;;;;;;;;4940414;28;20046;-70
2023/01/14 12:19:26;;;;;;;17.70;7.60;;;;;;;;;;4956688;28;20042;-70
2023/01/14 12:54:48;;;;;;;15.32;6.90;;;;;;;;;;4972311;28;20081;-70
2023/01/14 12:57:19;;;;;;;17.30;7.47;;;;;;;;;;4921477;29;20043;-70
2023/01/14 12:59:51;;;;;;;16.55;7.35;;;;;;;;;;4924549;28;20205;-70
2023/01/14 13:02:20;;;;;;;20.73;7.47;;;;;;;;;;4921431;29;20077;-70
2023/01/14 13:04:51;;;;;;;16.80;7.33;;;;;;;;;;4921465;29;20083;-71
2023/01/14 13:07:20;;;;;;;21.30;9.15;;;;;;;;;;4937072;29;20421;-70
2023/01/14 13:09:48;;;;;;;21.07;7.43;;;;;;;;;;4925169;28;20041;-70
2023/01/14 13:12:26;;;;;;;17.67;7.90;;;;;;;;;;4936932;29;20039;-70
2023/01/14 13:14:53;;;;;;;16.13;7.93;;;;;;;;;;4921032;29;20051;-69
2023/01/14 13:17:21;;;;;;;20.27;7.73;;;;;;;;;;4937807;28;20035;-71
2023/01/14 13:19:53;;;;;;;22.27;8.53;;;;;;;;;;4921433;29;20039;-70
2023/01/14 13:22:48;;;;;;;19.43;8.73;;;;;;;;;;4921643;28;20035;-70
2023/01/14 13:25:34;;;;;;;16.57;8.20;;;;;;;;;;4905199;29;20138;-70
2023/01/14 13:28:15;;;;;;;22.13;8.20;;;;;;;;;;4921112;29;20035;-71
2023/01/14 13:30:48;;;;;;;23.25;9.15;;;;;;;;;;4956229;28;20057;-70
2023/01/14 13:33:23;;;;;;;16.73;7.57;;;;;;;;;;4924099;28;20035;-71
2023/01/14 13:36:10;;;;;;;16.67;8.47;;;;;;;;;;4956152;28;20101;-70
2023/01/14 13:38:39;;;;;;;24.17;9.83;;;;;;;;;;4939665;28;20477;-70
2023/01/14 13:41:08;;;;;;;25.93;8.77;;;;;;;;;;4955840;28;20117;-71
2023/01/14 13:43:48;;;;;;;25.10;9.80;;;;;;;;;;4956240;28;20038;-70
2023/01/14 13:46:34;;;;;;;19.67;9.43;;;;;;;;;;4924294;29;20509;-71
2023/01/14 13:49:02;;;;;;;23.90;8.93;;;;;;;;;;4942688;28;20046;-70
2023/01/14 13:51:34;;;;;;;18.20;8.27;;;;;;;;;;4943175;28;20428;-70
2023/01/14 13:54:01;;;;;;;22.30;8.80;;;;;;;;;;4924083;29;20089;-70
2023/01/14 13:56:28;;;;;;;20.23;8.30;;;;;;;;;;4941197;28;20079;-70
2023/01/14 13:58:55;;;;;;;25.70;9.83;;;;;;;;;;4923853;29;20046;-70
2023/01/14 14:01:26;;;;;;;19.63;8.20;;;;;;;;;;4937919;28;20051;-70
2023/01/14 14:03:59;;;;;;;22.98;8.85;;;;;;;;;;4924208;29;20035;-70
2023/01/14 14:06:26;;;;;;;20.90;8.27;;;;;;;;;;4942898;28;20129;-70
2023/01/14 14:08:58;;;;;;;25.30;10.87;;;;;;;;;;4943282;28;20039;-70
2023/01/14 14:11:26;;;;;;;23.17;7.93;;;;;;;;;;4942893;28;20038;-69
2023/01/14 14:14:04;;;;;;;20.43;8.13;;;;;;;;;;4938213;29;20146;-70
2023/01/14 14:17:07;;;;;;;18.80;8.77;;;;;;;;;;4939647;29;20134;-71
2023/01/14 14:19:33;;;;;;;;;;;;;;;;;;4865767;29;20076;-70
2023/01/14 14:22:01;;;;;;;19.97;7.57;;;;;;;;;;4913627;29;19965;-71
2023/01/14 14:24:33;;;;;;;13.87;6.87;;;;;;;;;;4921786;29;20031;-71
2023/01/14 14:27:00;;;;;;;19.50;8.43;;;;;;;;;;4923364;29;20035;-70
2023/01/14 14:29:26;;;;;;;16.67;7.57;;;;;;;;;;4921326;29;20070;-70
2023/01/14 14:31:52;;;;;;;21.83;8.67;;;;;;;;;;4923676;29;20075;-71
2023/01/14 14:34:23;;;;;;;16.80;7.67;;;;;;;;;;4920385;29;20447;-71
2023/01/14 14:36:54;;;;;;;20.37;8.20;;;;;;;;;;4955417;29;20031;-70
2023/01/14 14:39:24;;;;;;;18.07;7.90;;;;;;;;;;4920828;29;20074;-70
2023/01/14 14:41:50;;;;;;;18.97;7.97;;;;;;;;;;4923499;29;20074;-70
2023/01/14 14:44:18;;;;;;;18.90;8.80;;;;;;;;;;4923193;29;20501;-71
2023/01/14 14:46:43;;;;;;;17.40;8.20;;;;;;;;;;4923093;29;20470;-70
2023/01/14 14:49:28;;;;;;;22.47;8.27;;;;;;;;;;4920152;29;20110;-70
2023/01/14 14:51:55;;;;;;;18.33;7.40;;;;;;;;;;4913656;29;20043;-70
2023/01/14 14:54:31;;;;;;;18.87;8.53;;;;;;;;;;4920344;29;20063;-69
2023/01/14 14:57:11;;;;;;;22.07;8.37;;;;;;;;;;4938035;29;20535;-69
2023/01/14 14:59:37;;;;;;;25.73;9.03;;;;;;;;;;4936351;29;20050;-67
2023/01/14 15:02:16;;;;;;;21.43;8.33;;;;;;;;;;4922696;29;20039;-67
2023/01/14 15:04:43;;;;;;;17.37;7.60;;;;;;;;;;4938867;29;20051;-67
2023/01/14 15:07:11;;;;;;;23.07;8.27;;;;;;;;;;4922892;29;20065;-71
2023/01/14 15:09:36;;;;;;;19.97;7.83;;;;;;;;;;4922642;29;20031;-71
2023/01/14 15:12:02;;;;;;;18.50;9.33;;;;;;;;;;4938392;29;20035;-73
2023/01/14 15:14:32;;;;;;;22.20;7.63;;;;;;;;;;4923080;29;20051;-73
2023/01/14 15:16:59;;;;;;;25.03;9.07;;;;;;;;;;4949484;28;20034;-75
2023/01/14 15:19:27;;;;;;;21.50;9.33;;;;;;;;;;4976119;28;20038;-76
2023/01/14 15:22:00;;;;;;;27.33;9.90;;;;;;;;;;4976968;28;20042;-75
2023/01/14 15:24:29;;;;;;;22.60;8.67;;;;;;;;;;4956230;28;20053;-76
2023/01/14 15:26:56;;;;;;;24.83;9.50;;;;;;;;;;4943161;28;20045;-73
2023/01/14 15:29:24;;;;;;;23.87;9.90;;;;;;;;;;4938322;28;20130;-73
2023/01/14 15:31:55;;;;;;;19.50;9.40;;;;;;;;;;4910738;28;20093;-75
2023/01/14 15:34:26;;;;;;;22.50;8.97;;;;;;;;;;4957238;28;20038;-72
2023/01/14 15:37:04;;;;;;;18.70;8.80;;;;;;;;;;4937161;29;20138;-72
2023/01/14 15:39:31;;;;;;;18.17;7.73;;;;;;;;;;4936089;28;20549;-74
2023/01/14 15:41:59;;;;;;;26.57;8.33;;;;;;;;;;4936566;29;20093;-75
2023/01/14 15:44:28;;;;;;;21.90;8.73;;;;;;;;;;4937989;28;20093;-72
2023/01/14 15:46:53;;;;;;;19.37;9.03;;;;;;;;;;4914106;29;20031;-73
2023/01/14 15:49:20;;;;;;;25.40;9.23;;;;;;;;;;4935821;28;20090;-73
2023/01/14 15:51:48;;;;;;;20.43;8.53;;;;;;;;;;4955308;28;20057;-73
2023/01/14 15:54:33;;;;;;;22.13;9.13;;;;;;;;;;4920908;29;20438;-71